Time;durP1;ratioP1;P1;durP2;ratioP2;P2;SDS_P1;SDS_P2;PMS_P1;PMS_P2;Temp;Humidity;BMP_temperature;BMP_pressure;BME280_temperature;BME280_humidity;BME280_pressure;Samples;Min_cycle;Max_cycle;Signal;HPM_P1;HPM_P2
2023/10/21 00:01:57;;;;;;;;;;;;;;;20.12;60.76;101011.75;4935928;29;19918;-84
2023/10/21 00:04:23;;;;;;;;;;;;;;;20.13;60.72;101008.25;4936049;29;19986;-85
2023/10/21 00:06:48;;;;;;;;;;;;;;;20.12;60.88;101007.31;4936140;28;19956;-85
2023/10/21 00:09:14;;;;;;;;;;;;;;;20.10;60.86;101014.34;4953393;28;20312;-85
2023/10/21 00:11:39;;;;;;;;;;;;;;;20.14;60.74;101012.66;4955791;28;19925;-85
2023/10/21 00:14:06;;;;;;;;;;;;;;;20.12;60.78;101012.63;4955555;29;20054;-85
2023/10/21 00:16:31;;;;;;;;;;;;;;;20.12;60.76;101014.38;4954761;29;19922;-85
2023/10/21 00:18:57;;;;;;;;;;;;;;;20.11;60.86;101009.97;4953283;28;19922;-85
2023/10/21 00:21:22;;;;;;;;;;;;;;;20.13;60.85;101017.09;4962703;28;20400;-85
2023/10/21 00:23:48;;;;;;;;;;;;;;;20.12;60.77;101014.38;4951278;29;20397;-85
2023/10/21 00:26:15;;;;;;;;;;;;;;;20.13;60.75;101011.78;4948582;28;19914;-85
2023/10/21 00:28:40;;;;;;;;;;;;;;;20.10;60.78;101008.16;4954619;28;19921;-85
2023/10/21 00:31:06;;;;;;;;;;;;;;;20.10;60.75;101006.41;4967511;28;19922;-85
2023/10/21 00:33:31;;;;;;;;;;;;;;;20.10;60.70;101017.00;4954736;28;19920;-85
2023/10/21 00:35:57;;;;;;;;;;;;;;;20.12;60.57;101017.94;4957081;28;19914;-85
2023/10/21 00:38:22;;;;;;;;;;;;;;;20.10;60.73;101024.06;4957602;28;19954;-85
2023/10/21 00:40:51;;;;;;;;;;;;;;;20.13;60.73;101018.84;4950885;28;20320;-85
2023/10/21 00:43:35;;;;;;;;;;;;;;;20.12;60.85;101017.94;4974586;28;19941;-85
2023/10/21 00:46:02;;;;;;;;;;;;;;;20.12;60.97;101025.00;4964847;28;19960;-84
2023/10/21 00:48:28;;;;;;;;;;;;;;;20.09;61.02;101022.31;4939719;28;20022;-85
2023/10/21 00:50:54;;;;;;;;;;;;;;;20.10;60.92;101024.06;4947676;28;19993;-85
2023/10/21 00:53:22;;;;;;;;;;;;;;;20.10;61.05;101029.38;4938185;28;19915;-85
2023/10/21 00:55:47;;;;;;;;;;;;;;;20.09;61.02;101031.13;4957126;28;19918;-85
2023/10/21 00:58:13;;;;;;;;;;;;;;;20.10;61.01;101030.25;4967542;28;19952;-85
2023/10/21 01:00:38;;;;;;;;;;;;;;;20.10;60.88;101027.59;4951831;28;19918;-85
2023/10/21 01:03:04;;;;;;;;;;;;;;;20.11;60.96;101037.38;4936288;29;19969;-84
2023/10/21 01:05:29;;;;;;;;;;;;;;;20.10;60.94;101035.56;4922303;29;20010;-85
2023/10/21 01:07:59;;;;;;;;;;;;;;;20.11;60.86;101039.13;4958727;28;19953;-84
2023/10/21 01:10:25;;;;;;;;;;;;;;;20.15;60.72;101033.03;4949893;28;19914;-85
2023/10/21 01:12:51;;;;;;;;;;;;;;;20.12;60.83;101043.56;4944231;28;19914;-85
2023/10/21 01:15:16;;;;;;;;;;;;;;;20.14;60.65;101044.47;4957182;28;20025;-84
2023/10/21 01:17:42;;;;;;;;;;;;;;;20.13;60.71;101042.72;4939076;28;19922;-85
2023/10/21 01:20:09;;;;;;;;;;;;;;;20.13;60.70;101043.59;4956278;28;20523;-85
2023/10/21 01:22:35;;;;;;;;;;;;;;;20.12;60.79;101047.09;4973605;28;20028;-85
2023/10/21 01:25:00;;;;;;;;;;;;;;;20.11;60.95;101047.09;4973817;28;20412;-85
2023/10/21 01:27:26;;;;;;;;;;;;;;;20.12;61.04;101049.75;4970868;28;19945;-85
2023/10/21 01:29:51;;;;;;;;;;;;;;;20.13;60.75;101046.25;4951438;29;20001;-84
2023/10/21 01:32:16;;;;;;;;;;;;;;;20.13;60.97;101046.25;4967642;28;19914;-85
2023/10/21 01:34:42;;;;;;;;;;;;;;;20.12;60.80;101044.44;4945291;28;19914;-85
2023/10/21 01:37:08;;;;;;;;;;;;;;;20.13;60.99;101043.59;4955488;28;19918;-85
2023/10/21 01:39:33;;;;;;;;;;;;;;;20.13;60.98;101046.25;4934452;29;19918;-84
2023/10/21 01:41:59;;;;;;;;;;;;;;;20.13;60.87;101050.66;4929714;29;19969;-85
2023/10/21 01:44:24;;;;;;;;;;;;;;;20.13;61.09;101048.00;4964181;28;19918;-85
2023/10/21 01:46:50;;;;;;;;;;;;;;;20.12;60.82;101046.22;4955984;28;20356;-84
2023/10/21 01:49:15;;;;;;;;;;;;;;;20.12;60.89;101044.44;4955042;28;19922;-84
2023/10/21 01:51:40;;;;;;;;;;;;;;;20.13;61.00;101042.72;4960335;28;19918;-85
2023/10/21 01:54:06;;;;;;;;;;;;;;;20.16;60.75;101044.53;4973208;28;19918;-85
2023/10/21 01:56:32;;;;;;;;;;;;;;;20.13;60.91;101043.59;4972994;28;19954;-84
2023/10/21 01:58:57;;;;;;;;;;;;;;;20.16;60.71;101047.19;4955034;28;19930;-84
2023/10/21 02:01:23;;;;;;;;;;;;;;;20.16;60.64;101053.38;4947480;28;19914;-85
2023/10/21 02:03:48;;;;;;;;;;;;;;;20.14;60.74;101044.47;4972814;28;19914;-84
2023/10/21 02:06:13;;;;;;;;;;;;;;;20.17;60.89;101051.59;4951558;29;19991;-85
2023/10/21 02:08:39;;;;;;;;;;;;;;;20.16;60.65;101052.47;4955852;28;19922;-85
2023/10/21 02:11:04;;;;;;;;;;;;;;;20.13;60.74;101054.19;4952800;28;19957;-85
2023/10/21 02:13:30;;;;;;;;;;;;;;;20.12;60.88;101056.81;4955774;28;19977;-85
2023/10/21 02:15:55;;;;;;;;;;;;;;;20.13;60.91;101062.16;4955544;28;19942;-84
2023/10/21 02:18:21;;;;;;;;;;;;;;;20.16;60.82;101057.78;4971583;28;19926;-84
2023/10/21 02:20:46;;;;;;;;;;;;;;;20.14;60.71;101061.28;4961065;28;19926;-85
2023/10/21 02:23:12;;;;;;;;;;;;;;;20.14;60.75;101058.63;4972789;28;19914;-85
2023/10/21 02:25:38;;;;;;;;;;;;;;;20.14;60.76;101068.34;4971735;28;19953;-85
2023/10/21 02:28:05;;;;;;;;;;;;;;;20.14;60.72;101060.41;4968738;28;19961;-84
2023/10/21 02:30:30;;;;;;;;;;;;;;;20.15;60.75;101067.50;4958553;28;19921;-85
2023/10/21 02:32:55;;;;;;;;;;;;;;;20.14;60.83;101057.75;4972577;28;19922;-84
2023/10/21 02:35:21;;;;;;;;;;;;;;;20.15;60.71;101067.50;4955166;28;19918;-85
2023/10/21 02:37:47;;;;;;;;;;;;;;;20.16;60.76;101068.38;4923883;29;19933;-84
2023/10/21 02:40:15;;;;;;;;;;;;;;;20.18;60.87;101062.25;4962252;28;19915;-84
2023/10/21 02:42:41;;;;;;;;;;;;;;;20.14;60.75;101065.69;4961978;28;19914;-85
2023/10/21 02:45:07;;;;;;;;;;;;;;;20.16;60.84;101071.91;4968465;28;20792;-84
2023/10/21 02:47:34;;;;;;;;;;;;;;;20.18;60.66;101075.50;4954700;28;19918;-84
2023/10/21 02:49:59;;;;;;;;;;;;;;;20.16;60.74;101073.69;4971792;28;19953;-85
2023/10/21 02:52:25;;;;;;;;;;;;;;;20.14;60.63;101081.59;4971991;28;20371;-85
2023/10/21 02:54:50;;;;;;;;;;;;;;;20.15;60.84;101072.81;4951707;28;20293;-84
2023/10/21 02:57:15;;;;;;;;;;;;;;;20.16;60.77;101081.66;4953555;28;19918;-83
2023/10/21 02:59:41;;;;;;;;;;;;;;;20.16;60.90;101076.34;4959950;28;19973;-85
2023/10/21 03:02:06;;;;;;;;;;;;;;;20.16;60.69;101079.00;4955568;28;19922;-85
2023/10/21 03:04:32;;;;;;;;;;;;;;;20.16;60.66;101081.66;4955011;28;19921;-85
2023/10/21 03:06:57;;;;;;;;;;;;;;;20.15;60.80;101075.44;4950660;28;19988;-84
2023/10/21 03:09:23;;;;;;;;;;;;;;;20.16;60.82;101071.03;4954876;28;19914;-84
2023/10/21 03:11:48;;;;;;;;;;;;;;;20.18;60.87;101077.25;4962490;28;19938;-85
2023/10/21 03:14:14;;;;;;;;;;;;;;;20.14;60.82;101071.00;4948657;28;19914;-85
2023/10/21 03:16:39;;;;;;;;;;;;;;;20.14;60.85;101074.53;4961423;28;19922;-85
2023/10/21 03:19:05;;;;;;;;;;;;;;;20.16;61.05;101079.00;4950655;28;19917;-85
2023/10/21 03:21:30;;;;;;;;;;;;;;;20.17;60.81;101079.03;4961959;28;19922;-85
2023/10/21 03:23:56;;;;;;;;;;;;;;;20.18;60.74;101079.91;4969098;28;19941;-85
2023/10/21 03:26:21;;;;;;;;;;;;;;;20.17;61.00;101076.38;4953874;28;20007;-85
2023/10/21 03:28:47;;;;;;;;;;;;;;;20.18;60.84;101077.25;4970301;28;19922;-84
2023/10/21 03:31:12;;;;;;;;;;;;;;;20.17;60.87;101081.69;4970797;28;19918;-85
2023/10/21 03:33:38;;;;;;;;;;;;;;;20.17;60.79;101081.69;4938437;28;19920;-85
2023/10/21 03:36:07;;;;;;;;;;;;;;;20.17;60.67;101078.13;4968896;28;20347;-84
2023/10/21 03:38:32;;;;;;;;;;;;;;;20.16;60.64;101077.22;4955475;28;19918;-85
2023/10/21 03:40:58;;;;;;;;;;;;;;;20.17;60.70;101081.69;4951233;28;20362;-85
2023/10/21 03:43:24;;;;;;;;;;;;;;;20.14;60.69;101081.59;4932215;28;20012;-84
2023/10/21 03:45:50;;;;;;;;;;;;;;;20.14;60.86;101084.25;4952388;28;20028;-85
2023/10/21 03:48:15;;;;;;;;;;;;;;;20.15;60.73;101086.06;4951201;28;20013;-84
2023/10/21 03:50:40;;;;;;;;;;;;;;;20.12;60.73;101081.56;4933976;28;20536;-84
2023/10/21 03:53:06;;;;;;;;;;;;;;;20.12;60.84;101084.22;4965971;28;19922;-83
2023/10/21 03:55:31;;;;;;;;;;;;;;;20.09;61.06;101073.56;4970989;28;19918;-85
2023/10/21 03:57:57;;;;;;;;;;;;;;;20.14;60.97;101076.31;4953391;28;19997;-84
2023/10/21 04:00:23;;;;;;;;;;;;;;;20.16;60.73;101077.22;4969777;28;19918;-85
2023/10/21 04:02:49;;;;;;;;;;;;;;;20.17;60.78;101079.03;4944499;28;19918;-85
2023/10/21 04:05:17;;;;;;;;;;;;;;;20.17;60.81;101084.34;4969843;28;20318;-85
2023/10/21 04:07:43;;;;;;;;;;;;;;;20.12;60.97;101084.22;4956931;28;20323;-84
2023/10/21 04:10:08;;;;;;;;;;;;;;;20.14;60.86;101086.91;4956348;28;19918;-85
2023/10/21 04:12:34;;;;;;;;;;;;;;;20.11;61.00;101076.25;4971910;28;19938;-85
2023/10/21 04:14:59;;;;;;;;;;;;;;;20.13;60.85;101082.47;4973392;28;20384;-85
2023/10/21 04:17:25;;;;;;;;;;;;;;;20.12;61.09;101078.03;4937650;29;19923;-84
2023/10/21 04:19:50;;;;;;;;;;;;;;;20.12;61.03;101088.63;4951998;28;19930;-84
2023/10/21 04:22:16;;;;;;;;;;;;;;;20.14;60.97;101087.78;4977346;28;19922;-84
2023/10/21 04:24:41;;;;;;;;;;;;;;;20.13;60.81;101086.03;4976496;28;19926;-84
2023/10/21 04:27:07;;;;;;;;;;;;;;;20.12;60.95;101093.94;4942713;28;20028;-85
2023/10/21 04:29:33;;;;;;;;;;;;;;;20.14;60.83;101086.91;4972452;28;19934;-86
2023/10/21 04:31:59;;;;;;;;;;;;;;;20.13;60.93;101086.03;4956370;28;19918;-85
2023/10/21 04:34:25;;;;;;;;;;;;;;;20.12;60.91;101086.88;4953090;28;19918;-85
2023/10/21 04:36:50;;;;;;;;;;;;;;;20.13;60.91;101091.31;4945874;28;19918;-85
2023/10/21 04:39:16;;;;;;;;;;;;;;;20.10;61.26;101100.97;4940129;28;20336;-84
2023/10/21 04:41:48;;;;;;;;;;;;;;;20.15;61.01;101099.31;4943807;29;19977;-84
2023/10/21 04:44:13;;;;;;;;;;;;;;;20.09;61.19;101093.88;4952218;28;19962;-84
2023/10/21 04:47:10;;;;;;;;;;;;;;;20.08;60.87;101097.38;4956397;28;19961;-84
2023/10/21 04:49:41;;;;;;;;;;;;;;;20.09;60.99;101110.69;4964779;28;20299;-85
2023/10/21 04:52:08;;;;;;;;;;;;;;;20.09;60.99;101113.34;4940342;28;20022;-85
2023/10/21 04:54:33;;;;;;;;;;;;;;;20.12;60.98;101110.72;4940618;28;20035;-85
2023/10/21 04:57:00;;;;;;;;;;;;;;;20.09;61.01;101118.63;4965551;28;19926;-85
2023/10/21 04:59:25;;;;;;;;;;;;;;;20.08;61.07;101111.53;4955106;28;19919;-83
2023/10/21 05:01:51;;;;;;;;;;;;;;;20.08;60.91;101121.25;4966251;28;20457;-85
2023/10/21 05:04:17;;;;;;;;;;;;;;;20.10;60.79;101114.22;4951147;28;19922;-86
2023/10/21 05:06:51;;;;;;;;;;;;;;;20.08;61.02;101116.84;4936260;28;19926;-87
2023/10/21 05:09:16;;;;;;;;;;;;;;;20.09;60.86;101128.34;4971677;28;20375;-87
2023/10/21 05:11:42;;;;;;;;;;;;;;;20.07;60.95;101123.00;4955420;28;19977;-87
2023/10/21 05:14:07;;;;;;;;;;;;;;;20.12;60.87;101129.28;4971986;28;19968;-86
2023/10/21 05:16:33;;;;;;;;;;;;;;;20.08;60.86;101134.50;4967344;28;19919;-85
2023/10/21 05:18:58;;;;;;;;;;;;;;;20.10;60.90;101135.44;4968669;28;20780;-86
2023/10/21 05:21:24;;;;;;;;;;;;;;;20.08;61.05;101140.69;4966661;28;20024;-86
2023/10/21 05:23:50;;;;;;;;;;;;;;;20.09;60.98;101150.47;4945658;28;20367;-83
2023/10/21 05:26:17;;;;;;;;;;;;;;;20.07;60.99;101146.88;4973493;28;20480;-84
2023/10/21 05:28:42;;;;;;;;;;;;;;;20.06;61.05;101144.19;4949468;29;20507;-84
2023/10/21 05:31:08;;;;;;;;;;;;;;;20.07;61.06;101159.25;4964097;28;19969;-85
2023/10/21 05:33:33;;;;;;;;;;;;;;;20.09;60.68;101158.41;4955579;28;20307;-85
2023/10/21 05:35:59;;;;;;;;;;;;;;;20.12;60.78;101162.88;4972409;28;19988;-86
2023/10/21 05:38:25;;;;;;;;;;;;;;;20.10;60.59;101161.94;4946390;28;19922;-85
2023/10/21 05:40:50;;;;;;;;;;;;;;;20.09;60.82;101161.06;4957058;28;20606;-84
2023/10/21 05:43:16;;;;;;;;;;;;;;;20.11;60.94;101172.59;4972638;28;19922;-84
2023/10/21 05:45:42;;;;;;;;;;;;;;;20.07;61.09;101165.44;4956277;28;20367;-85
2023/10/21 05:48:09;;;;;;;;;;;;;;;20.07;61.01;101167.19;4955456;28;19914;-84
2023/10/21 05:50:34;;;;;;;;;;;;;;;20.09;60.89;101171.66;4956847;28;20005;-84
2023/10/21 05:53:00;;;;;;;;;;;;;;;20.08;61.06;101183.13;4964977;28;20012;-84
2023/10/21 05:55:25;;;;;;;;;;;;;;;20.09;60.99;101178.72;4938936;28;19914;-85
2023/10/21 05:57:51;;;;;;;;;;;;;;;20.08;60.82;101180.47;4973859;28;19922;-84
2023/10/21 06:00:17;;;;;;;;;;;;;;;20.08;60.97;101184.88;4953944;28;19930;-83
2023/10/21 06:02:42;;;;;;;;;;;;;;;20.06;61.08;101187.50;4956291;28;19922;-84
2023/10/21 06:05:08;;;;;;;;;;;;;;;20.12;61.14;101184.09;4953389;28;19926;-84
2023/10/21 06:07:34;;;;;;;;;;;;;;;20.12;60.99;101186.75;4976407;28;19914;-84
2023/10/21 06:09:59;;;;;;;;;;;;;;;20.10;60.84;101184.03;4956334;28;19918;-83
2023/10/21 06:12:25;;;;;;;;;;;;;;;20.09;61.00;101184.91;4973577;28;19914;-85
2023/10/21 06:14:51;;;;;;;;;;;;;;;20.10;60.92;101186.69;4956920;28;19914;-86
2023/10/21 06:17:16;;;;;;;;;;;;;;;20.11;60.88;101185.84;4944063;28;19945;-84
2023/10/21 06:19:43;;;;;;;;;;;;;;;20.08;60.99;101187.53;4972162;28;20039;-85
2023/10/21 06:22:09;;;;;;;;;;;;;;;20.06;60.96;101184.84;4973336;28;19914;-85
2023/10/21 06:24:34;;;;;;;;;;;;;;;20.08;60.94;101190.19;4946584;29;19937;-85
2023/10/21 06:27:04;;;;;;;;;;;;;;;20.07;60.88;101189.28;4956583;28;20303;-84
2023/10/21 06:29:30;;;;;;;;;;;;;;;20.06;60.99;101181.31;4970298;28;20009;-86
2023/10/21 06:31:55;;;;;;;;;;;;;;;20.08;60.99;101187.53;4952242;28;20010;-85
2023/10/21 06:34:21;;;;;;;;;;;;;;;20.08;61.00;101191.06;4946037;28;19922;-85
2023/10/21 06:36:46;;;;;;;;;;;;;;;20.07;60.84;101183.09;4959359;28;20396;-85
2023/10/21 06:39:13;;;;;;;;;;;;;;;20.09;60.98;101186.69;4951036;28;19922;-85
2023/10/21 06:41:38;;;;;;;;;;;;;;;20.09;60.97;101179.63;4968098;28;19921;-85
2023/10/21 06:44:04;;;;;;;;;;;;;;;20.12;60.72;101179.66;4954213;28;19914;-84
2023/10/21 06:46:30;;;;;;;;;;;;;;;20.13;60.75;101189.44;4971485;28;20403;-85
2023/10/21 06:48:55;;;;;;;;;;;;;;;20.12;60.77;101190.28;4944227;28;19921;-84
2023/10/21 06:51:21;;;;;;;;;;;;;;;20.13;60.86;101181.47;4972260;28;20494;-85
2023/10/21 06:53:47;;;;;;;;;;;;;;;20.14;60.75;101195.63;4972529;28;19918;-86
2023/10/21 06:56:13;;;;;;;;;;;;;;;20.12;60.68;101179.66;4959647;28;19928;-85
2023/10/21 06:58:39;;;;;;;;;;;;;;;20.14;60.80;101185.00;4972096;28;19918;-86
2023/10/21 07:01:04;;;;;;;;;;;;;;;20.12;60.90;101192.94;4958060;28;19919;-85
2023/10/21 07:03:30;;;;;;;;;;;;;;;20.12;60.94;101190.28;4938577;29;19953;-85
2023/10/21 07:05:56;;;;;;;;;;;;;;;20.13;60.89;101199.16;4948741;28;19921;-85
2023/10/21 07:08:23;;;;;;;;;;;;;;;20.12;61.06;101197.34;4944693;28;19950;-84
2023/10/21 07:10:48;;;;;;;;;;;;;;;20.11;61.14;101193.81;4972267;28;20514;-83
2023/10/21 07:13:14;;;;;;;;;;;;;;;20.11;61.08;101192.91;4972314;28;20605;-85
2023/10/21 07:15:40;;;;;;;;;;;;;;;20.13;61.13;101199.16;4969905;28;19918;-85
2023/10/21 07:18:06;;;;;;;;;;;;;;;20.12;60.82;101192.94;4953647;28;19919;-87
2023/10/21 07:20:32;;;;;;;;;;;;;;;20.13;60.88;101197.38;4956400;28;19981;-84
2023/10/21 07:22:57;;;;;;;;;;;;;;;20.14;61.16;101200.94;4972716;28;19981;-84
2023/10/21 07:25:23;;;;;;;;;;;;;;;20.14;60.84;101196.50;4942120;28;20414;-82
2023/10/21 07:27:49;;;;;;;;;;;;;;;20.14;60.83;101200.94;4954114;28;19918;-84
2023/10/21 07:30:14;;;;;;;;;;;;;;;20.14;61.10;101200.94;4968236;28;20414;-85
2023/10/21 07:32:40;;;;;;;;;;;;;;;20.13;61.34;101202.69;4975095;28;20479;-85
2023/10/21 07:35:10;;;;;;;;;;;;;;;20.14;60.83;101192.97;4962240;28;19918;-87
2023/10/21 07:37:35;;;;;;;;;;;;;;;20.19;60.95;101206.31;4953101;28;19926;-85
2023/10/21 07:40:01;;;;;;;;;;;;;;;20.20;60.69;101201.06;4970796;28;20479;-85
2023/10/21 07:42:26;;;;;;;;;;;;;;;20.20;60.77;101202.81;4970462;28;19969;-86
2023/10/21 07:44:52;;;;;;;;;;;;;;;20.20;60.89;101203.72;4969885;28;20017;-85
2023/10/21 07:47:20;;;;;;;;;;;;;;;20.20;60.91;101202.81;4969631;28;19918;-88
2023/10/21 07:49:46;;;;;;;;;;;;;;;20.24;60.55;101202.03;4944431;28;19941;-85
2023/10/21 07:52:12;;;;;;;;;;;;;;;20.20;60.83;101197.53;4942874;29;20365;-84
2023/10/21 07:54:38;;;;;;;;;;;;;;;20.17;61.45;101195.72;4971924;28;19918;-86
2023/10/21 07:57:04;;;;;;;;;;;;;;;20.18;61.13;101194.81;4952544;28;20403;-87
2023/10/21 07:59:32;;;;;;;;;;;;;;;20.18;60.85;101188.63;4971543;28;19918;-85
2023/10/21 08:01:58;;;;;;;;;;;;;;;20.15;61.69;101181.53;4957025;28;20442;-84
2023/10/21 08:04:23;;;;;;;;;;;;;;;20.18;61.24;101193.94;4972931;28;19922;-84
2023/10/21 08:06:49;;;;;;;;;;;;;;;20.18;61.04;101186.00;4959404;28;19953;-85
2023/10/21 08:09:15;;;;;;;;;;;;;;;20.18;61.13;101192.19;4971899;28;20371;-85
2023/10/21 08:11:43;;;;;;;;;;;;;;;20.21;61.20;101186.03;4970554;28;20316;-86
2023/10/21 08:14:10;;;;;;;;;;;;;;;20.19;61.36;101191.28;4978528;28;19915;-85
2023/10/21 08:16:36;;;;;;;;;;;;;;;20.18;61.23;101176.25;4976967;28;19914;-84
2023/10/21 08:19:01;;;;;;;;;;;;;;;20.22;61.44;101185.19;4964585;28;19929;-84
2023/10/21 08:21:27;;;;;;;;;;;;;;;20.26;61.37;101181.75;4966252;28;19926;-85
2023/10/21 08:23:53;;;;;;;;;;;;;;;20.26;61.43;101193.25;4945690;29;19969;-84
2023/10/21 08:26:19;;;;;;;;;;;;;;;20.28;61.40;101186.22;4958529;28;19921;-85
2023/10/21 08:28:44;;;;;;;;;;;;;;;20.29;61.43;101185.34;4977298;28;19914;-86
2023/10/21 08:31:09;;;;;;;;;;;;;;;20.33;61.33;101183.66;4955677;28;19978;-86
2023/10/21 08:33:35;;;;;;;;;;;;;;;20.29;61.58;101184.44;4976833;28;19914;-85
2023/10/21 08:36:01;;;;;;;;;;;;;;;20.32;61.52;101187.19;4958235;28;19915;-85
2023/10/21 08:38:27;;;;;;;;;;;;;;;20.32;61.67;101190.72;4975360;28;19989;-85
2023/10/21 08:40:52;;;;;;;;;;;;;;;20.33;61.54;101175.69;4972695;28;19945;-84
2023/10/21 08:43:18;;;;;;;;;;;;;;;20.33;61.62;101183.66;4961061;28;19920;-83
2023/10/21 08:45:44;;;;;;;;;;;;;;;20.33;61.66;101175.69;4965277;28;19918;-85
2023/10/21 08:48:09;;;;;;;;;;;;;;;20.36;61.68;101181.03;4957943;28;19941;-83
2023/10/21 08:50:35;;;;;;;;;;;;;;;20.31;61.76;101173.00;4967155;28;19946;-83
2023/10/21 08:53:01;;;;;;;;;;;;;;;20.33;61.70;101170.38;4952080;28;19918;-83
2023/10/21 08:55:26;;;;;;;;;;;;;;;20.35;61.54;101168.66;4959242;28;19918;-84
2023/10/21 08:57:53;;;;;;;;;;;;;;;20.31;61.67;101175.66;4955176;28;19922;-84
2023/10/21 09:00:19;;;;;;;;;;;;;;;20.33;61.73;101171.28;4940861;28;19947;-84
2023/10/21 09:02:44;;;;;;;;;;;;;;;20.38;61.75;101168.72;4959905;28;19917;-84
2023/10/21 09:05:13;;;;;;;;;;;;;;;20.40;61.44;101166.97;4973452;28;19960;-83
2023/10/21 09:07:56;;;;;;;;;;;;;;;20.40;61.43;101161.69;4962817;28;19918;-84
2023/10/21 09:10:22;;;;;;;;;;;;;;;20.40;61.53;101164.31;4953446;28;19926;-84
2023/10/21 09:12:47;;;;;;;;;;;;;;;20.39;61.69;101167.84;4972588;28;20459;-84
2023/10/21 09:15:12;;;;;;;;;;;;;;;20.44;61.38;101167.94;4970684;28;19921;-84
2023/10/21 09:17:39;;;;;;;;;;;;;;;20.44;61.72;101160.00;4971778;28;19922;-84
2023/10/21 09:20:11;;;;;;;;;;;;;;;20.39;61.71;101159.03;4938962;28;20324;-85
2023/10/21 09:22:37;;;;;;;;;;;;;;;20.38;61.47;101157.22;4951251;28;19922;-85
2023/10/21 09:25:21;;;;;;;;;;;;;;;20.42;61.58;101154.66;4944017;28;20014;-85
2023/10/21 09:27:47;;;;;;;;;;;;;;;20.42;61.69;101156.41;4948189;28;19922;-83
2023/10/21 09:30:14;;;;;;;;;;;;;;;20.42;61.73;101159.94;4941970;29;19915;-84
2023/10/21 09:32:41;;;;;;;;;;;;;;;20.44;61.83;101162.63;4950138;29;20393;-85
2023/10/21 09:35:14;;;;;;;;;;;;;;;20.44;61.61;101160.00;4951408;29;19923;-86
2023/10/21 09:37:40;;;;;;;;;;;;;;;20.42;61.70;101152.00;4952652;29;19926;-85
2023/10/21 09:40:06;;;;;;;;;;;;;;;20.43;61.60;101156.44;4943912;28;19915;-86
2023/10/21 09:42:39;;;;;;;;;;;;;;;20.46;61.47;101151.19;4945764;29;19918;-86
2023/10/21 09:45:05;;;;;;;;;;;;;;;20.49;61.33;101145.06;4948523;29;19921;-85
2023/10/21 09:47:32;;;;;;;;;;;;;;;20.51;61.30;101152.19;4949963;28;19922;-85
2023/10/21 09:49:57;;;;;;;;;;;;;;;20.49;61.39;101153.03;4949223;29;19961;-85
2023/10/21 09:52:24;;;;;;;;;;;;;;;20.49;61.61;101150.38;4941578;29;19962;-85
2023/10/21 09:54:49;;;;;;;;;;;;;;;20.51;61.38;101148.63;4949594;29;19919;-86
2023/10/21 09:57:15;;;;;;;;;;;;;;;20.50;61.53;101145.09;4952624;29;19922;-84
2023/10/21 09:59:40;;;;;;;;;;;;;;;20.48;61.41;101141.50;4949482;28;20392;-86
2023/10/21 10:02:09;;;;;;;;;;;;;;;20.49;61.66;101145.97;4952220;28;19968;-84
2023/10/21 10:04:37;;;;;;;;;;;;;;;20.50;61.55;101129.16;4948557;28;20005;-85
2023/10/21 10:07:09;;;;;;;;;;;;;;;20.57;61.15;101131.94;4952097;29;19921;-83
2023/10/21 10:09:39;;;;;;;;;;;;;;;20.55;61.14;101134.53;4952539;29;19937;-84
2023/10/21 10:12:10;;;;;;;;;;;;;;;20.59;61.02;101128.47;4952734;28;20411;-84
2023/10/21 10:14:36;;;;;;;;;;;;;;;20.58;61.17;101123.16;4949689;28;19919;-84
2023/10/21 10:17:05;;;;;;;;;;;;;;;20.59;61.19;101124.94;4933294;29;19950;-84
2023/10/21 10:19:39;;;;;;;;;;;;;;;20.56;61.24;101123.09;4941390;28;19965;-84
2023/10/21 10:22:18;;;;;;;;;;;;;;;20.57;61.35;101123.97;4971848;28;19976;-86
2023/10/21 10:24:56;;;;;;;;;;;;;;;20.60;61.07;101117.00;4953251;28;20005;-84
2023/10/21 10:27:41;;;;;;;;;;;;;;;20.60;61.36;101124.97;4954327;28;19929;-84
2023/10/21 10:30:22;;;;;;;;;;;;;;;20.59;61.13;101114.31;4962148;28;19919;-84
2023/10/21 10:32:50;;;;;;;;;;;;;;;20.64;61.00;101110.91;4968249;28;19973;-85
2023/10/21 10:35:32;;;;;;;;;;;;;;;20.62;61.20;101115.28;4949800;28;19918;-85
2023/10/21 10:38:01;;;;;;;;;;;;;;;20.61;61.23;101112.59;4966131;28;19922;-84
2023/10/21 10:40:36;;;;;;;;;;;;;;;20.66;61.10;101118.91;4952501;28;19926;-83
2023/10/21 10:43:03;;;;;;;;;;;;;;;20.67;61.05;101107.41;4962026;28;19926;-85
2023/10/21 10:45:30;;;;;;;;;;;;;;;20.68;61.06;101107.44;4970629;28;19922;-84
2023/10/21 10:48:02;;;;;;;;;;;;;;;20.66;61.03;101098.56;4950977;28;19918;-83
2023/10/21 10:50:29;;;;;;;;;;;;;;;20.61;61.08;101094.91;4971373;28;19953;-88
2023/10/21 10:52:55;;;;;;;;;;;;;;;20.62;61.37;101104.66;4971123;28;19921;-85
2023/10/21 10:55:22;;;;;;;;;;;;;;;20.69;61.20;101101.25;4939151;28;20013;-85
2023/10/21 10:57:53;;;;;;;;;;;;;;;20.74;60.69;101098.66;4933305;28;19922;-86
2023/10/21 11:00:22;;;;;;;;;;;;;;;20.71;60.96;101104.81;4955410;28;19930;-87
2023/10/21 11:02:50;;;;;;;;;;;;;;;20.73;60.94;101107.50;4940010;28;19965;-84
2023/10/21 11:05:20;;;;;;;;;;;;;;;20.74;60.94;101103.97;4930852;28;20001;-86
2023/10/21 11:07:46;;;;;;;;;;;;;;;20.75;61.13;101105.78;4942471;28;20025;-86
2023/10/21 11:10:21;;;;;;;;;;;;;;;20.78;60.85;101102.28;4973434;28;19918;-86
2023/10/21 11:12:50;;;;;;;;;;;;;;;20.76;61.08;101104.00;4975209;28;19922;-85
2023/10/21 11:15:16;;;;;;;;;;;;;;;20.74;61.10;101096.94;4963871;28;19946;-85
2023/10/21 11:17:48;;;;;;;;;;;;;;;20.75;61.03;101097.81;4975499;28;19922;-87
2023/10/21 11:20:14;;;;;;;;;;;;;;;20.80;60.93;101090.81;4958436;28;19922;-84
2023/10/21 11:22:40;;;;;;;;;;;;;;;20.77;60.92;101090.78;4957836;28;19969;-85
2023/10/21 11:25:05;;;;;;;;;;;;;;;20.80;61.07;101090.81;4973665;28;20324;-85
2023/10/21 11:27:31;;;;;;;;;;;;;;;20.84;60.94;101092.66;4949872;29;19919;-85
2023/10/21 11:29:57;;;;;;;;;;;;;;;20.88;60.85;101086.53;4947432;28;20377;-84
2023/10/21 11:32:30;;;;;;;;;;;;;;;20.89;60.66;101079.44;4957566;28;19918;-85
2023/10/21 11:35:00;;;;;;;;;;;;;;;20.92;60.58;101080.41;4973645;28;19915;-85
2023/10/21 11:37:25;;;;;;;;;;;;;;;20.89;60.94;101072.41;4973872;28;20380;-84
2023/10/21 11:39:50;;;;;;;;;;;;;;;20.93;60.74;101078.63;4966774;28;19978;-84
2023/10/21 11:42:19;;;;;;;;;;;;;;;20.98;60.39;101073.44;4946634;29;19940;-85
2023/10/21 11:44:57;;;;;;;;;;;;;;;20.99;60.40;101075.19;4970870;28;19929;-85
2023/10/21 11:47:24;;;;;;;;;;;;;;;21.04;60.39;101076.16;4957373;28;19918;-85
2023/10/21 11:49:49;;;;;;;;;;;;;;;20.99;60.56;101077.84;4956976;28;19942;-85
2023/10/21 11:52:15;;;;;;;;;;;;;;;21.05;60.33;101080.59;4957371;28;19957;-85
2023/10/21 11:54:46;;;;;;;;;;;;;;;21.11;60.13;101078.06;4973804;28;19918;-85
2023/10/21 12:05:43;;;;;;;;;;;;;;;21.21;59.74;101080.00;4970254;28;19918;-84
2023/10/21 12:16:29;;;;;;;;;;;;;;;21.28;59.67;101075.66;4970227;28;20009;-85
2023/10/21 12:45:46;;;;;;;;;;;;;;;21.46;59.38;101068.00;4974658;28;20375;-85
2023/10/21 12:48:13;;;;;;;;;;;;;;;21.43;59.71;101073.25;4957052;28;20466;-85
2023/10/21 12:50:40;;;;;;;;;;;;;;;21.44;59.56;101072.41;4955375;28;20426;-85
2023/10/21 12:53:06;;;;;;;;;;;;;;;21.45;59.63;101076.81;4956705;28;19921;-85
2023/10/21 12:55:32;;;;;;;;;;;;;;;21.47;59.51;101069.78;4966106;28;19921;-85
2023/10/21 12:57:58;;;;;;;;;;;;;;;21.45;59.62;101071.50;4964731;28;19922;-84
2023/10/21 13:00:25;;;;;;;;;;;;;;;21.47;59.59;101076.84;4965262;28;19914;-85
2023/10/21 13:02:50;;;;;;;;;;;;;;;21.48;59.59;101071.56;4968494;28;19915;-85
2023/10/21 13:05:16;;;;;;;;;;;;;;;21.43;59.95;101070.59;4968759;28;20056;-84
2023/10/21 13:07:42;;;;;;;;;;;;;;;21.47;59.80;101068.88;4969537;28;19922;-83
2023/10/21 13:10:09;;;;;;;;;;;;;;;21.45;59.87;101068.84;4967480;28;19922;-86
2023/10/21 13:12:38;;;;;;;;;;;;;;;21.48;59.58;101068.00;4962804;28;19921;-87
2023/10/21 13:15:09;;;;;;;;;;;;;;;21.43;59.89;101067.06;4963036;28;19932;-85
2023/10/21 13:17:34;;;;;;;;;;;;;;;21.48;59.71;101071.56;4966782;28;19985;-85